createdAt,value
2022-08-31T00:00:10.736Z,20.28
2022-08-31T00:02:57.768Z,19.95
2022-08-31T00:05:24.482Z,19.94
2022-08-31T00:07:51.884Z,20.01
2022-08-31T00:10:31.626Z,19.96
2022-08-31T00:13:00.583Z,19.87
2022-08-31T00:15:27.983Z,19.68
2022-08-31T00:17:56.110Z,19.65
2022-08-31T00:20:33.292Z,19.70
2022-08-31T00:23:10.754Z,19.41
2022-08-31T00:25:40.120Z,19.54
2022-08-31T00:28:09.010Z,19.53
2022-08-31T00:30:36.494Z,19.22
2022-08-31T00:33:03.959Z,19.46
2022-08-31T00:35:32.259Z,19.34
2022-08-31T00:37:59.535Z,19.33
2022-08-31T00:40:26.528Z,19.36
2022-08-31T00:42:53.880Z,19.43
2022-08-31T00:45:20.843Z,19.61
2022-08-31T00:47:47.428Z,19.55
2022-08-31T00:50:17.550Z,19.58
2022-08-31T00:52:54.066Z,19.45
2022-08-31T00:55:32.011Z,19.53
2022-08-31T00:58:03.422Z,19.53
2022-08-31T01:00:30.737Z,19.49
2022-08-31T01:03:01.746Z,19.40
2022-08-31T01:05:30.896Z,19.41
2022-08-31T01:07:59.433Z,19.36
2022-08-31T01:10:30.850Z,19.28
2022-08-31T01:12:58.655Z,19.14
2022-08-31T01:15:27.490Z,19.24
2022-08-31T01:17:56.047Z,18.97
2022-08-31T01:20:48.903Z,19.02
2022-08-31T01:23:27.280Z,18.64
2022-08-31T01:25:56.947Z,18.79
2022-08-31T01:28:24.067Z,18.83
2022-08-31T01:31:41.791Z,18.97
2022-08-31T01:34:09.262Z,18.89
2022-08-31T01:36:37.993Z,18.94
2022-08-31T01:39:06.609Z,18.68
2022-08-31T01:41:33.251Z,18.85
2022-08-31T01:44:00.633Z,18.87
2022-08-31T01:46:28.493Z,18.86
2022-08-31T01:48:55.009Z,18.91
2022-08-31T01:51:22.564Z,18.80
2022-08-31T01:53:52.802Z,18.89
2022-08-31T01:56:26.827Z,18.97
2022-08-31T01:58:55.110Z,19.04
2022-08-31T02:01:37.535Z,19.02
2022-08-31T02:04:07.093Z,19.05
2022-08-31T02:06:34.052Z,18.98
2022-08-31T02:09:06.655Z,18.91
2022-08-31T02:11:33.485Z,18.70
2022-08-31T02:14:00.132Z,18.84
2022-08-31T02:16:27.017Z,18.54
2022-08-31T02:18:53.593Z,18.71
2022-08-31T02:21:20.271Z,18.66
2022-08-31T02:23:46.870Z,18.61
2022-08-31T02:26:14.329Z,18.64
2022-08-31T02:28:43.770Z,18.59
2022-08-31T02:31:10.445Z,18.57
2022-08-31T02:33:45.602Z,18.41
2022-08-31T02:36:12.252Z,18.55
2022-08-31T02:38:39.747Z,18.27
2022-08-31T02:41:06.646Z,18.23
2022-08-31T02:43:34.757Z,18.34
2022-08-31T02:46:01.803Z,18.26
2022-08-31T02:48:36.194Z,18.30
2022-08-31T02:51:07.216Z,18.39
2022-08-31T02:53:33.970Z,18.37
2022-08-31T02:56:00.795Z,18.28
2022-08-31T02:58:27.401Z,18.35
2022-08-31T03:00:53.973Z,18.30
2022-08-31T03:03:21.968Z,18.33
2022-08-31T03:05:50.001Z,18.36
2022-08-31T03:08:17.463Z,18.26
2022-08-31T03:10:46.918Z,18.26
2022-08-31T03:13:13.582Z,18.26
2022-08-31T03:15:43.738Z,18.25
2022-08-31T03:18:10.526Z,18.24
2022-08-31T03:20:37.550Z,17.45
2022-08-31T03:23:05.858Z,18.27
2022-08-31T03:25:32.888Z,18.30
2022-08-31T03:27:59.520Z,18.29
2022-08-31T03:30:31.418Z,18.26
2022-08-31T03:33:09.791Z,18.18
2022-08-31T03:35:37.797Z,18.16
2022-08-31T03:38:05.365Z,17.77
2022-08-31T03:40:32.776Z,17.65
2022-08-31T03:42:59.476Z,17.52
2022-08-31T03:45:27.963Z,17.42
2022-08-31T03:47:55.160Z,17.35
2022-08-31T03:50:23.809Z,17.50
2022-08-31T03:53:04.177Z,17.67
2022-08-31T03:55:33.012Z,17.58
2022-08-31T03:58:00.010Z,17.49
2022-08-31T04:00:28.547Z,17.35
2022-08-31T04:03:01.558Z,17.45
2022-08-31T04:05:35.137Z,17.36
2022-08-31T04:08:01.790Z,17.48
2022-08-31T04:10:49.578Z,17.53
2022-08-31T04:13:36.225Z,17.63
2022-08-31T04:16:22.463Z,17.71
2022-08-31T04:19:20.152Z,17.65
2022-08-31T04:22:12.886Z,17.45
2022-08-31T04:24:47.856Z,17.53
2022-08-31T04:27:14.351Z,17.52
2022-08-31T04:29:40.883Z,17.52
2022-08-31T04:32:07.378Z,17.32
2022-08-31T04:34:36.078Z,17.47
2022-08-31T04:37:02.857Z,17.41
2022-08-31T04:39:33.857Z,17.40
2022-08-31T04:42:00.812Z,17.52
2022-08-31T04:44:29.820Z,17.50
2022-08-31T04:46:58.407Z,17.46
2022-08-31T04:49:25.664Z,17.46
2022-08-31T04:51:52.363Z,17.48
2022-08-31T04:54:18.955Z,17.52
2022-08-31T04:56:45.823Z,17.59
2022-08-31T04:59:25.979Z,17.56
2022-08-31T05:02:07.547Z,17.47
2022-08-31T05:04:41.100Z,17.45
2022-08-31T05:07:07.650Z,17.50
2022-08-31T05:09:34.577Z,17.44
2022-08-31T05:12:01.581Z,17.49
2022-08-31T05:14:28.308Z,17.41
2022-08-31T05:17:01.509Z,17.04
2022-08-31T05:19:31.909Z,17.49
2022-08-31T05:21:58.858Z,17.62
2022-08-31T05:24:25.602Z,17.65
2022-08-31T05:26:54.167Z,17.79
2022-08-31T05:29:24.135Z,17.92
2022-08-31T05:31:58.285Z,18.01
2022-08-31T05:34:25.137Z,17.66
2022-08-31T05:36:53.816Z,18.03
2022-08-31T05:39:20.751Z,18.04
2022-08-31T05:41:47.654Z,18.07
2022-08-31T05:44:16.609Z,17.95
2022-08-31T05:46:43.707Z,17.87
2022-08-31T05:49:11.636Z,17.77
2022-08-31T05:51:39.281Z,17.54
2022-08-31T05:54:07.564Z,17.55
2022-08-31T05:56:34.553Z,17.66
2022-08-31T05:59:01.294Z,17.61
2022-08-31T06:01:30.753Z,17.45
2022-08-31T06:04:07.417Z,17.36
2022-08-31T06:06:34.423Z,17.60
2022-08-31T06:09:00.962Z,17.64
2022-08-31T06:11:30.588Z,17.62
2022-08-31T06:13:59.860Z,17.58
2022-08-31T06:16:27.602Z,17.51
2022-08-31T06:18:55.604Z,17.42
2022-08-31T06:21:30.167Z,17.38
2022-08-31T06:23:58.220Z,17.18
2022-08-31T06:26:27.915Z,17.30
2022-08-31T06:28:58.772Z,17.35
2022-08-31T06:31:49.826Z,17.41
2022-08-31T06:34:20.169Z,17.15
2022-08-31T06:37:06.629Z,17.54
2022-08-31T06:39:33.974Z,17.39
2022-08-31T06:42:25.764Z,17.21
2022-08-31T06:44:59.297Z,17.48
2022-08-31T06:47:44.500Z,17.25
2022-08-31T06:50:13.445Z,17.20
2022-08-31T06:52:40.183Z,17.28
2022-08-31T06:55:22.188Z,17.19
2022-08-31T06:58:06.946Z,17.15
2022-08-31T07:00:52.953Z,17.17
2022-08-31T07:03:32.993Z,17.15
2022-08-31T07:06:09.700Z,17.00
2022-08-31T07:08:38.334Z,17.21
2022-08-31T07:11:10.402Z,16.99
2022-08-31T07:13:37.085Z,17.15
2022-08-31T07:16:09.772Z,17.37
2022-08-31T07:18:37.369Z,17.33
2022-08-31T07:21:16.442Z,17.32
2022-08-31T07:23:44.377Z,17.29
2022-08-31T07:26:17.532Z,17.40
2022-08-31T07:28:44.430Z,17.20
2022-08-31T07:31:15.961Z,17.55
2022-08-31T07:33:42.895Z,17.42
2022-08-31T07:36:12.459Z,17.59
2022-08-31T07:39:07.194Z,17.29
2022-08-31T07:41:55.778Z,17.17
2022-08-31T07:44:24.041Z,17.22
2022-08-31T07:46:55.019Z,17.38
2022-08-31T07:49:23.301Z,17.41
2022-08-31T07:52:03.757Z,17.73
2022-08-31T07:54:52.003Z,17.99
2022-08-31T07:57:47.207Z,18.14
2022-08-31T08:00:22.061Z,17.86
2022-08-31T08:02:52.978Z,18.22
2022-08-31T08:05:28.628Z,18.23
2022-08-31T08:08:15.790Z,18.31
2022-08-31T08:10:56.635Z,17.97
2022-08-31T08:13:25.845Z,18.12
2022-08-31T08:16:18.398Z,18.12
2022-08-31T08:18:56.099Z,18.00
2022-08-31T08:21:28.438Z,18.11
2022-08-31T08:23:55.778Z,18.24
2022-08-31T08:26:31.001Z,18.08
2022-08-31T08:29:05.590Z,17.91
2022-08-31T08:31:33.421Z,18.40
2022-08-31T08:34:00.341Z,18.39
2022-08-31T08:36:27.036Z,18.54
2022-08-31T08:38:54.616Z,18.80
2022-08-31T08:41:26.983Z,18.82
2022-08-31T08:43:57.250Z,18.80
2022-08-31T08:46:40.113Z,18.89
2022-08-31T08:49:20.134Z,18.77
2022-08-31T08:51:54.031Z,18.81
2022-08-31T08:54:32.237Z,18.58
2022-08-31T08:57:07.750Z,18.39
2022-08-31T08:59:34.378Z,18.34
2022-08-31T09:02:04.943Z,18.00
2022-08-31T09:04:52.522Z,18.02
2022-08-31T09:07:37.346Z,18.35
2022-08-31T09:10:18.119Z,18.55
2022-08-31T09:13:09.693Z,18.79
2022-08-31T09:15:53.064Z,18.63
2022-08-31T09:18:35.793Z,18.63
2022-08-31T09:21:25.473Z,18.59
2022-08-31T09:24:03.708Z,18.85
2022-08-31T09:26:54.366Z,18.43
2022-08-31T09:29:33.179Z,18.30
2022-08-31T09:32:06.994Z,18.23
2022-08-31T09:34:41.351Z,18.50
2022-08-31T09:37:19.327Z,18.57
2022-08-31T09:39:49.158Z,18.50
2022-08-31T09:42:20.432Z,18.78
2022-08-31T09:44:50.836Z,18.60
2022-08-31T09:47:55.856Z,18.59
2022-08-31T09:50:35.504Z,18.36
2022-08-31T09:53:26.749Z,18.46
2022-08-31T09:56:14.413Z,18.83
2022-08-31T09:58:54.263Z,18.67
2022-08-31T10:01:34.027Z,18.62
2022-08-31T10:04:46.022Z,18.71
2022-08-31T10:07:40.549Z,18.96
2022-08-31T10:10:28.241Z,19.20
2022-08-31T10:13:13.990Z,19.23
2022-08-31T10:15:52.837Z,18.89
2022-08-31T10:18:28.937Z,19.00
2022-08-31T10:21:05.955Z,18.82
2022-08-31T10:23:56.254Z,18.52
2022-08-31T10:26:56.993Z,18.74
2022-08-31T10:29:40.714Z,18.77
2022-08-31T10:32:53.877Z,18.59
2022-08-31T10:35:44.011Z,18.51
2022-08-31T10:38:32.346Z,18.55
2022-08-31T10:41:23.484Z,18.56
2022-08-31T10:44:05.945Z,18.43
2022-08-31T10:46:34.529Z,18.47
2022-08-31T10:49:04.506Z,18.36
2022-08-31T10:51:40.174Z,18.18
2022-08-31T10:54:28.844Z,18.08
2022-08-31T10:57:21.541Z,18.07
2022-08-31T11:00:09.829Z,18.27
2022-08-31T11:03:06.975Z,18.42
2022-08-31T11:05:50.526Z,18.50
2022-08-31T11:08:36.219Z,18.56
2022-08-31T11:11:06.734Z,18.65
2022-08-31T11:13:57.050Z,18.80
2022-08-31T11:16:51.068Z,18.72
2022-08-31T11:19:38.466Z,18.78
2022-08-31T11:22:37.439Z,18.71
2022-08-31T11:25:29.201Z,18.68
2022-08-31T11:28:09.180Z,18.74
2022-08-31T11:30:45.621Z,18.38
2022-08-31T11:33:21.240Z,18.44
2022-08-31T11:36:06.706Z,18.42
2022-08-31T11:38:48.529Z,18.45
2022-08-31T11:41:48.837Z,18.42
2022-08-31T11:44:46.643Z,17.97
2022-08-31T11:47:28.263Z,18.07
2022-08-31T11:50:05.565Z,18.05
2022-08-31T11:52:48.345Z,17.93
2022-08-31T11:55:21.010Z,17.96
2022-08-31T11:58:07.152Z,18.12
2022-08-31T12:01:02.961Z,18.08
2022-08-31T12:03:43.071Z,18.24
2022-08-31T12:06:33.851Z,17.92
2022-08-31T12:09:38.040Z,18.15
2022-08-31T12:12:10.877Z,18.03
2022-08-31T12:14:47.694Z,18.02
2022-08-31T12:17:24.355Z,18.15
2022-08-31T12:20:02.409Z,18.16
2022-08-31T12:23:15.392Z,17.97
2022-08-31T12:26:06.352Z,17.93
2022-08-31T12:29:14.409Z,17.83
2022-08-31T12:31:41.586Z,17.74
2022-08-31T12:34:13.920Z,17.58
2022-08-31T12:36:40.493Z,17.50
2022-08-31T12:39:13.204Z,17.68
2022-08-31T12:41:45.115Z,17.71
2022-08-31T12:44:14.447Z,17.75
2022-08-31T12:46:54.447Z,17.90
2022-08-31T12:49:48.659Z,18.04
2022-08-31T12:52:42.949Z,18.02
2022-08-31T12:55:23.406Z,18.09
2022-08-31T12:58:12.728Z,18.25
2022-08-31T13:00:43.306Z,18.42
2022-08-31T13:03:24.621Z,18.57
2022-08-31T13:06:13.632Z,18.87
2022-08-31T13:08:54.131Z,18.81
2022-08-31T13:11:27.987Z,18.97
2022-08-31T13:14:14.212Z,19.01
2022-08-31T13:16:44.632Z,19.25
2022-08-31T13:19:21.092Z,19.42
2022-08-31T13:22:06.933Z,19.66
2022-08-31T13:24:42.330Z,19.87
2022-08-31T13:27:20.688Z,20.04
2022-08-31T13:29:48.825Z,19.89
2022-08-31T13:32:21.367Z,19.92
2022-08-31T13:34:49.172Z,20.34
2022-08-31T13:37:28.377Z,20.72
2022-08-31T13:39:55.926Z,20.99
2022-08-31T13:42:31.906Z,21.07
2022-08-31T13:45:02.955Z,21.04
2022-08-31T13:47:47.542Z,21.11
2022-08-31T13:50:25.203Z,20.98
2022-08-31T13:53:25.516Z,20.88
2022-08-31T13:55:48.696Z,20.62
2022-08-31T13:58:30.426Z,20.72
2022-08-31T14:01:36.551Z,21.02
2022-08-31T14:04:03.221Z,20.99
2022-08-31T14:06:38.709Z,21.16
2022-08-31T14:09:16.869Z,21.68
2022-08-31T14:11:53.255Z,21.96
2022-08-31T14:14:39.797Z,22.13
2022-08-31T14:17:12.190Z,22.31
2022-08-31T14:19:38.749Z,22.57
2022-08-31T14:22:36.426Z,22.39
2022-08-31T14:25:06.459Z,22.00
2022-08-31T14:27:36.695Z,21.64
2022-08-31T14:30:03.877Z,21.35
2022-08-31T14:32:30.929Z,21.26
2022-08-31T14:34:58.982Z,21.39
2022-08-31T14:37:30.080Z,20.89
2022-08-31T14:40:07.560Z,20.57
2022-08-31T14:42:37.920Z,20.68
2022-08-31T14:45:18.459Z,20.51
2022-08-31T14:47:47.819Z,20.72
2022-08-31T14:50:21.973Z,20.60
2022-08-31T14:52:59.516Z,20.31
2022-08-31T14:55:28.125Z,20.20
2022-08-31T14:58:01.822Z,20.53
2022-08-31T15:00:31.700Z,20.69
2022-08-31T15:03:01.065Z,20.70
2022-08-31T15:05:27.580Z,20.57
2022-08-31T15:07:55.753Z,20.70
2022-08-31T15:10:25.271Z,20.59
2022-08-31T15:12:52.448Z,20.52
2022-08-31T15:15:20.354Z,20.26
2022-08-31T15:17:51.852Z,20.32
2022-08-31T15:20:20.896Z,20.58
2022-08-31T15:22:48.210Z,20.57
2022-08-31T15:25:15.589Z,20.94
2022-08-31T15:27:44.379Z,20.97
2022-08-31T15:30:12.402Z,21.22
2022-08-31T15:32:48.650Z,20.77
2022-08-31T15:35:19.016Z,20.84
2022-08-31T15:37:56.246Z,20.88
2022-08-31T15:40:23.822Z,20.80
2022-08-31T15:42:50.896Z,20.97
2022-08-31T15:45:17.731Z,21.11
2022-08-31T15:48:03.702Z,21.13
2022-08-31T15:50:31.774Z,21.23
2022-08-31T15:53:01.618Z,21.15
2022-08-31T15:55:30.830Z,20.73
2022-08-31T15:57:59.322Z,20.41
2022-08-31T16:00:28.961Z,20.20
2022-08-31T16:02:57.167Z,19.96
2022-08-31T16:05:31.358Z,19.82
2022-08-31T16:07:58.049Z,19.91
2022-08-31T16:10:27.676Z,20.09
2022-08-31T16:12:54.197Z,20.00
2022-08-31T16:15:24.495Z,20.48
2022-08-31T16:17:51.703Z,20.23
2022-08-31T16:20:18.221Z,20.15
2022-08-31T16:22:45.391Z,20.39
2022-08-31T16:25:14.274Z,20.27
2022-08-31T16:27:43.322Z,20.29
2022-08-31T16:30:11.861Z,20.32
2022-08-31T16:32:38.674Z,20.37
2022-08-31T16:35:06.198Z,20.08
2022-08-31T16:37:33.434Z,20.17
2022-08-31T16:40:00.343Z,20.24
2022-08-31T16:42:27.066Z,20.40
2022-08-31T16:44:58.442Z,20.31
2022-08-31T16:47:29.122Z,20.04
2022-08-31T16:49:55.857Z,19.99
2022-08-31T16:52:26.619Z,19.81
2022-08-31T16:54:54.333Z,19.70
2022-08-31T16:57:27.148Z,19.60
2022-08-31T16:59:56.451Z,19.47
2022-08-31T17:02:24.876Z,19.47
2022-08-31T17:04:53.338Z,19.52
2022-08-31T17:07:23.088Z,19.47
2022-08-31T17:09:50.177Z,19.47
2022-08-31T17:12:21.405Z,19.60
2022-08-31T17:14:52.116Z,18.96
2022-08-31T17:17:22.539Z,19.63
2022-08-31T17:19:50.137Z,19.75
2022-08-31T17:22:24.397Z,19.78
2022-08-31T17:24:56.347Z,19.85
2022-08-31T17:27:23.955Z,19.77
2022-08-31T17:29:52.654Z,19.78
2022-08-31T17:32:23.780Z,19.82
2022-08-31T17:34:52.059Z,19.74
2022-08-31T17:37:27.192Z,19.73
2022-08-31T17:39:55.024Z,19.67
2022-08-31T17:42:22.663Z,19.73
2022-08-31T17:44:53.003Z,19.83
2022-08-31T17:47:20.932Z,19.80
2022-08-31T17:49:47.583Z,19.75
2022-08-31T17:52:14.336Z,19.80
2022-08-31T17:54:43.086Z,19.83
2022-08-31T17:57:13.471Z,19.96
2022-08-31T17:59:42.707Z,20.02
2022-08-31T18:02:18.992Z,19.87
2022-08-31T18:04:45.851Z,19.98
2022-08-31T18:07:12.668Z,19.94
2022-08-31T18:09:41.894Z,19.81
2022-08-31T18:12:09.500Z,19.55
2022-08-31T18:14:38.847Z,19.42
2022-08-31T18:17:08.620Z,19.24
2022-08-31T18:19:35.789Z,19.27
2022-08-31T18:22:02.986Z,19.29
2022-08-31T18:24:34.146Z,19.32
2022-08-31T18:27:04.144Z,19.22
2022-08-31T18:29:34.482Z,19.05
2022-08-31T18:32:05.848Z,19.05
2022-08-31T18:34:36.323Z,18.96
2022-08-31T18:37:04.244Z,18.90
2022-08-31T18:39:52.423Z,18.97
2022-08-31T18:42:38.927Z,18.95
2022-08-31T18:45:16.000Z,18.90
2022-08-31T18:47:52.644Z,18.91
2022-08-31T18:50:32.424Z,18.85
2022-08-31T18:53:10.817Z,18.81
2022-08-31T18:55:42.765Z,18.80
2022-08-31T18:58:09.380Z,18.50
2022-08-31T19:00:36.392Z,18.69
2022-08-31T19:03:03.047Z,18.58
2022-08-31T19:05:31.673Z,18.41
2022-08-31T19:08:00.300Z,18.37
2022-08-31T19:10:27.387Z,18.17
2022-08-31T19:12:55.907Z,18.21
2022-08-31T19:15:25.492Z,18.22
2022-08-31T19:17:58.543Z,18.27
2022-08-31T19:20:29.197Z,18.24
2022-08-31T19:22:56.931Z,18.30
2022-08-31T19:25:24.409Z,18.31
2022-08-31T19:27:52.061Z,18.25
2022-08-31T19:30:24.474Z,18.25
2022-08-31T19:32:54.154Z,18.23
2022-08-31T19:35:21.310Z,18.06
2022-08-31T19:37:51.832Z,18.04
2022-08-31T19:40:19.759Z,17.92
2022-08-31T19:43:42.959Z,17.92
2022-08-31T19:45:43.451Z,17.74
2022-08-31T19:48:12.370Z,17.55
2022-08-31T19:50:42.239Z,17.57
2022-08-31T19:53:12.110Z,17.45
2022-08-31T19:55:51.425Z,17.44
2022-08-31T19:58:25.295Z,17.41
2022-08-31T20:01:00.753Z,17.41
2022-08-31T20:03:28.293Z,17.39
2022-08-31T20:05:55.022Z,17.22
2022-08-31T20:08:21.590Z,17.24
2022-08-31T20:10:49.363Z,17.15
2022-08-31T20:13:16.229Z,17.11
2022-08-31T20:15:45.019Z,16.95
2022-08-31T20:18:12.728Z,16.77
2022-08-31T20:20:48.369Z,16.89
2022-08-31T20:23:17.376Z,16.88
2022-08-31T20:25:45.653Z,16.84
2022-08-31T20:28:13.555Z,16.80
2022-08-31T20:30:41.847Z,16.84
2022-08-31T20:33:10.613Z,16.69
2022-08-31T20:35:42.669Z,16.33
2022-08-31T20:38:13.217Z,16.23
2022-08-31T20:40:41.799Z,16.08
2022-08-31T20:43:12.615Z,16.23
2022-08-31T20:45:41.206Z,16.04
2022-08-31T20:48:27.140Z,16.11
2022-08-31T20:50:53.635Z,15.90
2022-08-31T20:53:24.997Z,15.68
2022-08-31T20:56:07.955Z,15.80
2022-08-31T20:58:34.463Z,15.83
2022-08-31T21:01:05.935Z,15.80
2022-08-31T21:03:33.405Z,15.34
2022-08-31T21:06:08.079Z,15.45
2022-08-31T21:08:38.160Z,15.60
2022-08-31T21:11:16.090Z,15.34
2022-08-31T21:13:43.731Z,15.35
2022-08-31T21:16:10.971Z,15.26
2022-08-31T21:18:38.807Z,15.31
2022-08-31T21:21:08.201Z,15.34
2022-08-31T21:23:36.786Z,15.29
2022-08-31T21:26:04.895Z,15.22
2022-08-31T21:28:31.459Z,15.15
2022-08-31T21:31:15.727Z,15.08
2022-08-31T21:34:00.491Z,15.20
2022-08-31T21:36:28.930Z,15.14
2022-08-31T21:38:57.128Z,15.02
2022-08-31T21:41:26.664Z,15.06
2022-08-31T21:43:54.580Z,15.14
2022-08-31T21:46:24.949Z,14.98
2022-08-31T21:48:53.392Z,14.99
2022-08-31T21:51:28.526Z,14.98
2022-08-31T21:53:59.158Z,14.84
2022-08-31T21:56:28.689Z,14.64
2022-08-31T21:58:59.323Z,14.48
2022-08-31T22:01:29.403Z,14.47
2022-08-31T22:03:59.135Z,14.36
2022-08-31T22:06:29.046Z,14.10
2022-08-31T22:09:00.075Z,14.22
2022-08-31T22:11:29.447Z,14.26
2022-08-31T22:13:58.951Z,14.44
2022-08-31T22:16:26.320Z,14.51
2022-08-31T22:19:01.356Z,14.43
2022-08-31T22:21:31.947Z,14.39
2022-08-31T22:24:02.487Z,14.47
2022-08-31T22:26:30.589Z,14.41
2022-08-31T22:28:57.169Z,14.40
2022-08-31T22:31:25.239Z,14.42
2022-08-31T22:33:51.995Z,14.43
2022-08-31T22:36:31.274Z,14.41
2022-08-31T22:39:05.530Z,14.40
2022-08-31T22:41:33.465Z,14.33
2022-08-31T22:44:00.201Z,14.23
2022-08-31T22:46:27.367Z,14.21
2022-08-31T22:48:53.880Z,14.19
2022-08-31T22:51:22.345Z,14.15
2022-08-31T22:53:51.511Z,13.92
2022-08-31T22:56:27.045Z,13.87
2022-08-31T22:58:55.197Z,13.78
2022-08-31T23:01:26.633Z,13.60
2022-08-31T23:03:55.949Z,13.71
2022-08-31T23:06:24.969Z,13.73
2022-08-31T23:08:53.073Z,13.81
2022-08-31T23:11:21.098Z,13.81
2022-08-31T23:13:55.480Z,13.62
2022-08-31T23:16:39.072Z,13.79
2022-08-31T23:19:12.304Z,13.74
2022-08-31T23:21:50.134Z,13.86
2022-08-31T23:24:23.591Z,13.83
2022-08-31T23:26:50.940Z,13.83
2022-08-31T23:29:21.698Z,13.92
2022-08-31T23:31:48.678Z,13.85
2022-08-31T23:34:16.325Z,13.68
2022-08-31T23:36:47.615Z,13.68
2022-08-31T23:39:16.779Z,13.57
2022-08-31T23:41:44.888Z,13.72
2022-08-31T23:44:12.939Z,13.82
2022-08-31T23:46:43.277Z,13.87
2022-08-31T23:49:12.386Z,13.85
2022-08-31T23:51:39.904Z,13.79
2022-08-31T23:54:07.922Z,13.69
2022-08-31T23:56:40.686Z,13.71
2022-08-31T23:59:13.992Z,13.68
